sensor_id;sensor_type;location;lat;lon;timestamp;pressure;altitude;pressure_sealevel;temperature;humidity
13068;BME280;6600;51.362;6.686;2023-03-21T00:01:13;101296.47;;;10.98;93.53
13068;BME280;6600;51.362;6.686;2023-03-21T00:03:39;101291.72;;;10.94;93.71
13068;BME280;6600;51.362;6.686;2023-03-21T00:06:07;101294.38;;;10.94;93.80
13068;BME280;6600;51.362;6.686;2023-03-21T00:08:33;101296.03;;;10.95;93.96
13068;BME280;6600;51.362;6.686;2023-03-21T00:11:00;101290.06;;;10.93;93.86
13068;BME280;6600;51.362;6.686;2023-03-21T00:13:27;101287.41;;;10.93;93.79
13068;BME280;6600;51.362;6.686;2023-03-21T00:15:58;101286.97;;;10.96;93.39
13068;BME280;6600;51.362;6.686;2023-03-21T00:18:27;101289.03;;;10.94;93.31
13068;BME280;6600;51.362;6.686;2023-03-21T00:21:03;101282.63;;;10.95;93.24
13068;BME280;6600;51.362;6.686;2023-03-21T00:23:29;101283.66;;;10.94;93.36
13068;BME280;6600;51.362;6.686;2023-03-21T00:25:55;101279.97;;;10.95;93.32
13068;BME280;6600;51.362;6.686;2023-03-21T00:28:21;101288.19;;;10.93;93.18
13068;BME280;6600;51.362;6.686;2023-03-21T00:30:47;101275.00;;;10.92;93.22
13068;BME280;6600;51.362;6.686;2023-03-21T00:33:13;101275.44;;;10.95;92.99
13068;BME280;6600;51.362;6.686;2023-03-21T00:35:39;101279.53;;;10.91;92.84
13068;BME280;6600;51.362;6.686;2023-03-21T00:38:08;101271.69;;;10.90;93.09
13068;BME280;6600;51.362;6.686;2023-03-21T00:40:34;101272.31;;;10.92;92.83
13068;BME280;6600;51.362;6.686;2023-03-21T00:42:59;101276.44;;;10.94;92.64
13068;BME280;6600;51.362;6.686;2023-03-21T00:45:24;101274.59;;;10.95;92.64
13068;BME280;6600;51.362;6.686;2023-03-21T00:47:50;101276.69;;;10.99;92.42
13068;BME280;6600;51.362;6.686;2023-03-21T00:50:15;101268.41;;;11.01;92.49
13068;BME280;6600;51.362;6.686;2023-03-21T00:52:42;101271.09;;;11.01;92.97
13068;BME280;6600;51.362;6.686;2023-03-21T00:55:13;101260.59;;;11.06;92.54
13068;BME280;6600;51.362;6.686;2023-03-21T00:57:38;101257.69;;;11.01;92.40
13068;BME280;6600;51.362;6.686;2023-03-21T01:00:04;101252.31;;;11.01;92.20
13068;BME280;6600;51.362;6.686;2023-03-21T01:02:32;101254.41;;;10.99;92.48
13068;BME280;6600;51.362;6.686;2023-03-21T01:04:57;101248.63;;;11.02;92.67
13068;BME280;6600;51.362;6.686;2023-03-21T01:07:22;101244.91;;;11.03;92.38
13068;BME280;6600;51.362;6.686;2023-03-21T01:09:48;101249.03;;;10.99;92.75
13068;BME280;6600;51.362;6.686;2023-03-21T01:12:13;101243.25;;;11.02;92.52
13068;BME280;6600;51.362;6.686;2023-03-21T01:14:38;101245.28;;;11.00;92.76
13068;BME280;6600;51.362;6.686;2023-03-21T01:17:05;101245.72;;;11.03;92.93
13068;BME280;6600;51.362;6.686;2023-03-21T01:19:30;101247.38;;;10.98;92.65
13068;BME280;6600;51.362;6.686;2023-03-21T01:21:56;101239.56;;;11.03;92.89
13068;BME280;6600;51.362;6.686;2023-03-21T01:24:21;101240.75;;;11.00;92.78
13068;BME280;6600;51.362;6.686;2023-03-21T01:26:47;101231.09;;;11.06;92.88
13068;BME280;6600;51.362;6.686;2023-03-21T01:29:12;101237.47;;;11.05;92.86
13068;BME280;6600;51.362;6.686;2023-03-21T01:31:37;101230.44;;;11.04;92.57
13068;BME280;6600;51.362;6.686;2023-03-21T01:34:03;101231.09;;;11.06;93.21
13068;BME280;6600;51.362;6.686;2023-03-21T01:36:28;101232.94;;;11.05;93.08
13068;BME280;6600;51.362;6.686;2023-03-21T01:38:54;101232.13;;;11.05;92.95
13068;BME280;6600;51.362;6.686;2023-03-21T01:43:50;101238.72;;;11.02;93.20
13068;BME280;6600;51.362;6.686;2023-03-21T01:46:21;101227.78;;;11.04;93.05
13068;BME280;6600;51.362;6.686;2023-03-21T01:51:47;101228.00;;;11.09;93.29
13068;BME280;6600;51.362;6.686;2023-03-21T01:54:19;101220.13;;;11.14;93.40
13068;BME280;6600;51.362;6.686;2023-03-21T01:56:47;101223.66;;;11.08;93.99
13068;BME280;6600;51.362;6.686;2023-03-21T01:59:18;101217.66;;;11.19;93.74
13068;BME280;6600;51.362;6.686;2023-03-21T02:01:46;101216.84;;;11.12;94.19
13068;BME280;6600;51.362;6.686;2023-03-21T02:04:12;101216.84;;;11.05;94.66
13068;BME280;6600;51.362;6.686;2023-03-21T02:06:51;101213.56;;;11.10;94.90
13068;BME280;6600;51.362;6.686;2023-03-21T02:09:22;101209.22;;;11.09;94.95
13068;BME280;6600;51.362;6.686;2023-03-21T02:11:48;101203.22;;;11.07;95.04
13068;BME280;6600;51.362;6.686;2023-03-21T02:14:15;101193.31;;;11.07;95.47
13068;BME280;6600;51.362;6.686;2023-03-21T02:16:49;101193.53;;;11.06;95.43
13068;BME280;6600;51.362;6.686;2023-03-21T02:21:53;101174.56;;;11.07;95.65
13068;BME280;6600;51.362;6.686;2023-03-21T02:27:20;101177.88;;;11.03;96.05
13068;BME280;6600;51.362;6.686;2023-03-21T02:32:53;101182.59;;;11.01;96.60
13068;BME280;6600;51.362;6.686;2023-03-21T02:44:18;101167.53;;;10.93;97.07
13068;BME280;6600;51.362;6.686;2023-03-21T02:46:53;101166.09;;;10.91;97.01
13068;BME280;6600;51.362;6.686;2023-03-21T02:49:29;101163.22;;;10.86;97.21
13068;BME280;6600;51.362;6.686;2023-03-21T02:51:58;101163.22;;;10.86;97.29
13068;BME280;6600;51.362;6.686;2023-03-21T02:54:25;101162.59;;;10.84;97.66
13068;BME280;6600;51.362;6.686;2023-03-21T02:56:54;101158.25;;;10.83;97.44
13068;BME280;6600;51.362;6.686;2023-03-21T02:59:22;101147.94;;;10.80;97.75
13068;BME280;6600;51.362;6.686;2023-03-21T03:01:50;101150.03;;;10.78;98.08
13068;BME280;6600;51.362;6.686;2023-03-21T03:04:26;101150.22;;;10.76;98.14
13068;BME280;6600;51.362;6.686;2023-03-21T03:09:32;101151.06;;;10.70;98.93
13068;BME280;6600;51.362;6.686;2023-03-21T03:25:52;101145.47;;;10.58;99.60
13068;BME280;6600;51.362;6.686;2023-03-21T03:28:25;101138.47;;;10.57;99.38
13068;BME280;6600;51.362;6.686;2023-03-21T03:30:52;101139.50;;;10.56;99.56
13068;BME280;6600;51.362;6.686;2023-03-21T03:33:19;101139.69;;;10.55;99.71
13068;BME280;6600;51.362;6.686;2023-03-21T03:35:49;101140.09;;;10.58;99.57
13068;BME280;6600;51.362;6.686;2023-03-21T03:38:17;101143.41;;;10.60;99.18
13068;BME280;6600;51.362;6.686;2023-03-21T03:40:49;101128.38;;;10.59;98.86
13068;BME280;6600;51.362;6.686;2023-03-21T03:43:22;101126.09;;;10.56;99.00
13068;BME280;6600;51.362;6.686;2023-03-21T03:45:57;101127.34;;;10.60;99.01
13068;BME280;6600;51.362;6.686;2023-03-21T03:48:32;101126.94;;;10.63;99.13
13068;BME280;6600;51.362;6.686;2023-03-21T03:51:06;101123.22;;;10.71;99.24
13068;BME280;6600;51.362;6.686;2023-03-21T03:53:36;101120.31;;;10.66;98.99
13068;BME280;6600;51.362;6.686;2023-03-21T03:56:04;101116.63;;;10.67;99.20
13068;BME280;6600;51.362;6.686;2023-03-21T03:58:31;101116.63;;;10.67;99.25
13068;BME280;6600;51.362;6.686;2023-03-21T04:00:57;101117.88;;;10.71;98.97
13068;BME280;6600;51.362;6.686;2023-03-21T04:03:22;101114.56;;;10.69;98.80
13068;BME280;6600;51.362;6.686;2023-03-21T04:05:48;101113.34;;;10.72;99.01
13068;BME280;6600;51.362;6.686;2023-03-21T04:08:14;101114.16;;;10.72;99.08
13068;BME280;6600;51.362;6.686;2023-03-21T04:10:40;101115.38;;;10.70;99.11
13068;BME280;6600;51.362;6.686;2023-03-21T04:13:06;101114.56;;;10.69;99.68
13068;BME280;6600;51.362;6.686;2023-03-21T04:15:31;101107.56;;;10.75;99.08
13068;BME280;6600;51.362;6.686;2023-03-21T04:17:57;101115.59;;;10.75;99.06
13068;BME280;6600;51.362;6.686;2023-03-21T04:20:22;101116.63;;;10.74;98.97
13068;BME280;6600;51.362;6.686;2023-03-21T04:22:48;101116.63;;;10.74;99.55
13068;BME280;6600;51.362;6.686;2023-03-21T04:25:13;101118.28;;;10.75;99.47
13068;BME280;6600;51.362;6.686;2023-03-21T04:27:39;101117.44;;;10.74;99.70
13068;BME280;6600;51.362;6.686;2023-03-21T04:30:05;101119.31;;;10.74;100.00
13068;BME280;6600;51.362;6.686;2023-03-21T04:32:31;101117.88;;;10.71;100.00
13068;BME280;6600;51.362;6.686;2023-03-21T04:34:58;101117.44;;;10.74;100.00
13068;BME280;6600;51.362;6.686;2023-03-21T04:37:24;101116.63;;;10.74;100.00
13068;BME280;6600;51.362;6.686;2023-03-21T04:39:50;101109.59;;;10.73;100.00
13068;BME280;6600;51.362;6.686;2023-03-21T04:42:16;101109.59;;;10.73;100.00
13068;BME280;6600;51.362;6.686;2023-03-21T04:44:45;101111.25;;;10.74;100.00
13068;BME280;6600;51.362;6.686;2023-03-21T04:47:11;101102.63;;;10.72;100.00
13068;BME280;6600;51.362;6.686;2023-03-21T04:49:37;101103.03;;;10.69;100.00
13068;BME280;6600;51.362;6.686;2023-03-21T04:52:03;101096.44;;;10.64;100.00
13068;BME280;6600;51.362;6.686;2023-03-21T04:54:28;101093.75;;;10.58;100.00
13068;BME280;6600;51.362;6.686;2023-03-21T04:56:54;101091.28;;;10.56;100.00
13068;BME280;6600;51.362;6.686;2023-03-21T04:59:19;101086.31;;;10.53;100.00
13068;BME280;6600;51.362;6.686;2023-03-21T05:01:45;101080.34;;;10.51;100.00
13068;BME280;6600;51.362;6.686;2023-03-21T05:04:13;101086.09;;;10.48;100.00
13068;BME280;6600;51.362;6.686;2023-03-21T05:06:39;101086.53;;;10.45;100.00
13068;BME280;6600;51.362;6.686;2023-03-21T05:09:07;101091.06;;;10.51;100.00
13068;BME280;6600;51.362;6.686;2023-03-21T05:11:34;101080.34;;;10.51;100.00
13068;BME280;6600;51.362;6.686;2023-03-21T05:14:02;101083.84;;;10.45;100.00
13068;BME280;6600;51.362;6.686;2023-03-21T05:16:28;101084.25;;;10.42;100.00
13068;BME280;6600;51.362;6.686;2023-03-21T05:18:55;101090.63;;;10.41;100.00
13068;BME280;6600;51.362;6.686;2023-03-21T05:21:22;101084.88;;;10.44;100.00
13068;BME280;6600;51.362;6.686;2023-03-21T05:23:47;101084.06;;;10.37;100.00
13068;BME280;6600;51.362;6.686;2023-03-21T05:26:20;101085.91;;;10.43;100.00
13068;BME280;6600;51.362;6.686;2023-03-21T05:28:45;101083.66;;;10.40;100.00
13068;BME280;6600;51.362;6.686;2023-03-21T05:31:13;101086.94;;;10.42;100.00
13068;BME280;6600;51.362;6.686;2023-03-21T05:33:41;101081.56;;;10.42;100.00
13068;BME280;6600;51.362;6.686;2023-03-21T05:36:07;101076.22;;;10.42;100.00
13068;BME280;6600;51.362;6.686;2023-03-21T05:38:32;101071.88;;;10.41;100.00
13068;BME280;6600;51.362;6.686;2023-03-21T05:40:57;101071.28;;;10.39;100.00
13068;BME280;6600;51.362;6.686;2023-03-21T05:43:23;101068.78;;;10.38;100.00
13068;BME280;6600;51.362;6.686;2023-03-21T05:45:48;101076.03;;;10.44;100.00
13068;BME280;6600;51.362;6.686;2023-03-21T05:48:14;101073.13;;;10.45;100.00
13068;BME280;6600;51.362;6.686;2023-03-21T05:50:39;101072.72;;;10.48;100.00
13068;BME280;6600;51.362;6.686;2023-03-21T05:53:04;101073.94;;;10.52;100.00
13068;BME280;6600;51.362;6.686;2023-03-21T05:55:30;101069.00;;;10.49;100.00
13068;BME280;6600;51.362;6.686;2023-03-21T05:57:55;101076.63;;;10.52;100.00
13068;BME280;6600;51.362;6.686;2023-03-21T06:00:20;101070.84;;;10.55;100.00
13068;BME280;6600;51.362;6.686;2023-03-21T06:02:46;101070.44;;;10.58;100.00
13068;BME280;6600;51.362;6.686;2023-03-21T06:05:11;101076.63;;;10.59;100.00
13068;BME280;6600;51.362;6.686;2023-03-21T06:07:37;101071.69;;;10.56;100.00
13068;BME280;6600;51.362;6.686;2023-03-21T06:10:03;101075.78;;;10.58;100.00
13068;BME280;6600;51.362;6.686;2023-03-21T06:12:29;101079.09;;;10.60;100.00
13068;BME280;6600;51.362;6.686;2023-03-21T06:14:54;101080.34;;;10.58;100.00
13068;BME280;6600;51.362;6.686;2023-03-21T06:17:20;101076.22;;;10.62;100.00
13068;BME280;6600;51.362;6.686;2023-03-21T06:19:45;101073.34;;;10.63;100.00
13068;BME280;6600;51.362;6.686;2023-03-21T06:22:10;101070.47;;;10.65;100.00
13068;BME280;6600;51.362;6.686;2023-03-21T06:24:36;101072.31;;;10.64;100.00
13068;BME280;6600;51.362;6.686;2023-03-21T06:27:01;101071.25;;;10.65;100.00
13068;BME280;6600;51.362;6.686;2023-03-21T06:29:27;101074.34;;;10.62;100.00
13068;BME280;6600;51.362;6.686;2023-03-21T06:31:52;101078.28;;;10.67;100.00
13068;BME280;6600;51.362;6.686;2023-03-21T06:34:17;101082.41;;;10.62;100.00
13068;BME280;6600;51.362;6.686;2023-03-21T06:36:43;101086.50;;;10.58;100.00
13068;BME280;6600;51.362;6.686;2023-03-21T06:39:09;101078.69;;;10.63;100.00
13068;BME280;6600;51.362;6.686;2023-03-21T06:41:34;101085.72;;;10.64;100.00
13068;BME280;6600;51.362;6.686;2023-03-21T06:44:00;101084.47;;;10.67;100.00
13068;BME280;6600;51.362;6.686;2023-03-21T06:46:25;101089.00;;;10.67;100.00
13068;BME280;6600;51.362;6.686;2023-03-21T06:48:51;101084.88;;;10.71;100.00
13068;BME280;6600;51.362;6.686;2023-03-21T06:51:16;101082.63;;;10.68;100.00
13068;BME280;6600;51.362;6.686;2023-03-21T06:53:42;101082.81;;;10.73;100.00
13068;BME280;6600;51.362;6.686;2023-03-21T06:56:09;101084.47;;;10.74;100.00
13068;BME280;6600;51.362;6.686;2023-03-21T06:58:35;101087.56;;;10.71;100.00
13068;BME280;6600;51.362;6.686;2023-03-21T07:01:01;101079.09;;;10.74;100.00
13068;BME280;6600;51.362;6.686;2023-03-21T07:03:27;101085.06;;;10.76;100.00
13068;BME280;6600;51.362;6.686;2023-03-21T07:05:53;101082.00;;;10.79;100.00
13068;BME280;6600;51.362;6.686;2023-03-21T07:08:19;101080.75;;;10.81;100.00
13068;BME280;6600;51.362;6.686;2023-03-21T07:10:44;101088.97;;;10.80;100.00
13068;BME280;6600;51.362;6.686;2023-03-21T07:13:11;101084.44;;;10.93;100.00
13068;BME280;6600;51.362;6.686;2023-03-21T07:15:36;101083.78;;;11.04;100.00
13068;BME280;6600;51.362;6.686;2023-03-21T07:18:03;101085.22;;;11.07;100.00
13068;BME280;6600;51.362;6.686;2023-03-21T07:20:29;101087.06;;;11.20;100.00
13068;BME280;6600;51.362;6.686;2023-03-21T07:22:55;101075.69;;;11.24;100.00
13068;BME280;6600;51.362;6.686;2023-03-21T07:25:21;101078.59;;;11.23;100.00
13068;BME280;6600;51.362;6.686;2023-03-21T07:27:46;101083.94;;;11.29;99.88
13068;BME280;6600;51.362;6.686;2023-03-21T07:30:12;101079.38;;;11.36;100.00
13068;BME280;6600;51.362;6.686;2023-03-21T07:32:38;101071.13;;;11.31;99.98
13068;BME280;6600;51.362;6.686;2023-03-21T07:35:10;101067.63;;;11.37;100.00
13068;BME280;6600;51.362;6.686;2023-03-21T07:37:37;101069.47;;;11.37;100.00
13068;BME280;6600;51.362;6.686;2023-03-21T07:40:02;101071.09;;;11.44;100.00
13068;BME280;6600;51.362;6.686;2023-03-21T07:42:33;101069.03;;;11.46;100.00
13068;BME280;6600;51.362;6.686;2023-03-21T07:44:59;101069.44;;;11.43;100.00
13068;BME280;6600;51.362;6.686;2023-03-21T07:47:24;101067.78;;;11.42;99.95
13068;BME280;6600;51.362;6.686;2023-03-21T07:49:50;101072.94;;;11.50;100.00
13068;BME280;6600;51.362;6.686;2023-03-21T07:52:15;101071.28;;;11.49;100.00
13068;BME280;6600;51.362;6.686;2023-03-21T07:54:41;101069.22;;;11.51;100.00
13068;BME280;6600;51.362;6.686;2023-03-21T07:57:06;101067.56;;;11.50;100.00
13068;BME280;6600;51.362;6.686;2023-03-21T07:59:31;101072.66;;;11.58;100.00
13068;BME280;6600;51.362;6.686;2023-03-21T08:01:57;101078.47;;;11.55;100.00
13068;BME280;6600;51.362;6.686;2023-03-21T08:04:22;101086.13;;;11.52;100.00
13068;BME280;6600;51.362;6.686;2023-03-21T08:06:49;101092.50;;;11.57;100.00
13068;BME280;6600;51.362;6.686;2023-03-21T08:09:15;101093.75;;;11.61;100.00
13068;BME280;6600;51.362;6.686;2023-03-21T08:11:40;101087.94;;;11.64;100.00
13068;BME280;6600;51.362;6.686;2023-03-21T08:14:06;101090.22;;;11.61;100.00
13068;BME280;6600;51.362;6.686;2023-03-21T08:16:31;101087.94;;;11.64;100.00
13068;BME280;6600;51.362;6.686;2023-03-21T08:18:57;101097.84;;;11.71;100.00
13068;BME280;6600;51.362;6.686;2023-03-21T08:21:22;101094.13;;;11.65;100.00
13068;BME280;6600;51.362;6.686;2023-03-21T08:23:48;101087.97;;;11.58;100.00
13068;BME280;6600;51.362;6.686;2023-03-21T08:26:13;101094.94;;;11.65;100.00
13068;BME280;6600;51.362;6.686;2023-03-21T08:28:42;101089.81;;;11.71;100.00
13068;BME280;6600;51.362;6.686;2023-03-21T08:31:09;101091.22;;;11.73;100.00
13068;BME280;6600;51.362;6.686;2023-03-21T08:33:36;101090.41;;;11.73;100.00
13068;BME280;6600;51.362;6.686;2023-03-21T08:36:02;101082.09;;;11.81;100.00
13068;BME280;6600;51.362;6.686;2023-03-21T08:38:28;101095.75;;;11.73;100.00
13068;BME280;6600;51.362;6.686;2023-03-21T08:40:57;101092.47;;;11.71;100.00
13068;BME280;6600;51.362;6.686;2023-03-21T08:43:24;101093.91;;;11.66;100.00
13068;BME280;6600;51.362;6.686;2023-03-21T08:45:50;101094.53;;;11.69;100.00
13068;BME280;6600;51.362;6.686;2023-03-21T08:48:15;101094.53;;;11.69;100.00
13068;BME280;6600;51.362;6.686;2023-03-21T08:50:40;101094.53;;;11.69;100.00
13068;BME280;6600;51.362;6.686;2023-03-21T08:53:06;101099.28;;;11.66;100.00
13068;BME280;6600;51.362;6.686;2023-03-21T08:55:31;101095.75;;;11.73;100.00
13068;BME280;6600;51.362;6.686;2023-03-21T08:57:58;101090.78;;;11.70;100.00
13068;BME280;6600;51.362;6.686;2023-03-21T09:00:23;101087.56;;;11.54;100.00
13068;BME280;6600;51.362;6.686;2023-03-21T09:02:49;101090.06;;;11.49;100.00
13068;BME280;6600;51.362;6.686;2023-03-21T09:05:17;101086.34;;;11.50;100.00
13068;BME280;6600;51.362;6.686;2023-03-21T09:07:43;101077.88;;;11.53;100.00
13068;BME280;6600;51.362;6.686;2023-03-21T09:10:15;101083.03;;;11.48;100.00
13068;BME280;6600;51.362;6.686;2023-03-21T09:12:41;101080.16;;;11.50;100.00
13068;BME280;6600;51.362;6.686;2023-03-21T09:15:08;101091.28;;;11.53;100.00
13068;BME280;6600;51.362;6.686;2023-03-21T09:17:34;101084.09;;;11.47;100.00
13068;BME280;6600;51.362;6.686;2023-03-21T09:20:00;101082.00;;;11.49;100.00
13068;BME280;6600;51.362;6.686;2023-03-21T09:22:29;101078.50;;;11.49;100.00
13068;BME280;6600;51.362;6.686;2023-03-21T09:24:54;101075.19;;;11.53;100.00
13068;BME280;6600;51.362;6.686;2023-03-21T09:27:21;101078.03;;;11.58;100.00
13068;BME280;6600;51.362;6.686;2023-03-21T09:29:50;101074.69;;;11.76;100.00
13068;BME280;6600;51.362;6.686;2023-03-21T09:32:16;101078.41;;;11.82;100.00
13068;BME280;6600;51.362;6.686;2023-03-21T09:34:44;101076.69;;;11.87;100.00
13068;BME280;6600;51.362;6.686;2023-03-21T09:37:10;101072.59;;;11.85;100.00
13068;BME280;6600;51.362;6.686;2023-03-21T09:39:41;101077.72;;;11.93;100.00
13068;BME280;6600;51.362;6.686;2023-03-21T09:44:58;101072.34;;;11.93;100.00
13068;BME280;6600;51.362;6.686;2023-03-21T09:47:31;101076.41;;;12.02;100.00
13068;BME280;6600;51.362;6.686;2023-03-21T09:50:12;101071.25;;;12.00;100.00
13068;BME280;6600;51.362;6.686;2023-03-21T09:55:45;101076.66;;;11.94;100.00
13068;BME280;6600;51.362;6.686;2023-03-21T09:58:24;101069.47;;;11.88;100.00
13068;BME280;6600;51.362;6.686;2023-03-21T10:00:51;101067.56;;;11.95;100.00
13068;BME280;6600;51.362;6.686;2023-03-21T10:03:29;101058.50;;;11.96;100.00
13068;BME280;6600;51.362;6.686;2023-03-21T10:05:57;101063.22;;;11.94;100.00
13068;BME280;6600;51.362;6.686;2023-03-21T10:08:27;101064.03;;;12.01;100.00
13068;BME280;6600;51.362;6.686;2023-03-21T10:10:59;101062.78;;;11.97;100.00
13068;BME280;6600;51.362;6.686;2023-03-21T10:13:32;101058.13;;;11.86;100.00
13068;BME280;6600;51.362;6.686;2023-03-21T10:16:00;101050.31;;;11.78;100.00
13068;BME280;6600;51.362;6.686;2023-03-21T10:18:28;101041.41;;;11.84;100.00
13068;BME280;6600;51.362;6.686;2023-03-21T10:20:55;101037.53;;;11.73;100.00
13068;BME280;6600;51.362;6.686;2023-03-21T10:23:25;101032.56;;;11.70;100.00
13068;BME280;6600;51.362;6.686;2023-03-21T10:25:54;101031.75;;;11.70;100.00
13068;BME280;6600;51.362;6.686;2023-03-21T10:28:26;101025.53;;;11.76;100.00
13068;BME280;6600;51.362;6.686;2023-03-21T10:30:57;101024.50;;;11.77;100.00
13068;BME280;6600;51.362;6.686;2023-03-21T10:33:26;101016.38;;;11.90;100.00
13068;BME280;6600;51.362;6.686;2023-03-21T10:36:08;101017.88;;;11.86;100.00
13068;BME280;6600;51.362;6.686;2023-03-21T10:38:38;101005.28;;;11.80;100.00
13068;BME280;6600;51.362;6.686;2023-03-21T10:41:05;101012.50;;;11.86;100.00
13068;BME280;6600;51.362;6.686;2023-03-21T10:43:34;101010.19;;;11.89;100.00
13068;BME280;6600;51.362;6.686;2023-03-21T10:46:12;100994.88;;;11.90;100.00
13068;BME280;6600;51.362;6.686;2023-03-21T10:48:41;100991.94;;;11.98;100.00
13068;BME280;6600;51.362;6.686;2023-03-21T10:51:14;100982.41;;;12.02;100.00
13068;BME280;6600;51.362;6.686;2023-03-21T10:53:45;100991.19;;;12.15;100.00
13068;BME280;6600;51.362;6.686;2023-03-21T10:56:14;100978.16;;;12.19;100.00
13068;BME280;6600;51.362;6.686;2023-03-21T10:58:49;100975.19;;;12.27;100.00
13068;BME280;6600;51.362;6.686;2023-03-21T11:01:40;100975.13;;;12.34;100.00
13068;BME280;6600;51.362;6.686;2023-03-21T11:04:19;100965.19;;;12.34;100.00
13068;BME280;6600;51.362;6.686;2023-03-21T11:06:50;100967.66;;;12.36;100.00
13068;BME280;6600;51.362;6.686;2023-03-21T11:09:19;100969.69;;;12.40;100.00
13068;BME280;6600;51.362;6.686;2023-03-21T11:12:09;100965.53;;;12.44;100.00
13068;BME280;6600;51.362;6.686;2023-03-21T11:17:00;100970.84;;;12.51;100.00
13068;BME280;6600;51.362;6.686;2023-03-21T11:19:34;100959.94;;;12.64;100.00
13068;BME280;6600;51.362;6.686;2023-03-21T11:22:05;100961.53;;;12.72;100.00
13068;BME280;6600;51.362;6.686;2023-03-21T11:24:32;100958.50;;;12.80;100.00
13068;BME280;6600;51.362;6.686;2023-03-21T11:26:58;100953.88;;;12.87;100.00
13068;BME280;6600;51.362;6.686;2023-03-21T11:29:37;100957.47;;;12.99;99.91
13068;BME280;6600;51.362;6.686;2023-03-21T11:32:19;100946.59;;;13.12;99.28
13068;BME280;6600;51.362;6.686;2023-03-21T11:34:50;100954.34;;;13.20;99.30
13068;BME280;6600;51.362;6.686;2023-03-21T11:37:23;100942.88;;;13.25;99.24
13068;BME280;6600;51.362;6.686;2023-03-21T11:39:54;100951.31;;;13.28;98.39
13068;BME280;6600;51.362;6.686;2023-03-21T11:42:30;100938.94;;;13.27;98.47
13068;BME280;6600;51.362;6.686;2023-03-21T11:45:26;100950.78;;;13.38;98.42
13068;BME280;6600;51.362;6.686;2023-03-21T11:47:54;100939.06;;;13.32;97.63
13068;BME280;6600;51.362;6.686;2023-03-21T11:50:30;100945.03;;;13.34;97.88
13068;BME280;6600;51.362;6.686;2023-03-21T11:56:44;100943.06;;;13.41;97.87
13068;BME280;6600;51.362;6.686;2023-03-21T11:59:06;100943.88;;;13.30;97.89
13068;BME280;6600;51.362;6.686;2023-03-21T12:07:01;100944.03;;;12.99;99.10
13068;BME280;6600;51.362;6.686;2023-03-21T12:28:50;100929.25;;;12.72;100.00
13068;BME280;6600;51.362;6.686;2023-03-21T12:31:43;100926.31;;;12.73;100.00
13068;BME280;6600;51.362;6.686;2023-03-21T12:37:19;100911.13;;;12.97;100.00
13068;BME280;6600;51.362;6.686;2023-03-21T12:39:47;100902.84;;;12.98;100.00
13068;BME280;6600;51.362;6.686;2023-03-21T12:45:19;100899.03;;;13.06;100.00
13068;BME280;6600;51.362;6.686;2023-03-21T12:47:50;100893.97;;;13.16;100.00
13068;BME280;6600;51.362;6.686;2023-03-21T12:50:22;100903.09;;;13.15;98.75
13068;BME280;6600;51.362;6.686;2023-03-21T12:52:57;100885.66;;;13.18;98.07
13068;BME280;6600;51.362;6.686;2023-03-21T12:55:27;100895.22;;;13.13;98.78
13068;BME280;6600;51.362;6.686;2023-03-21T12:57:59;100884.66;;;13.30;98.57
13068;BME280;6600;51.362;6.686;2023-03-21T13:00:34;100880.78;;;13.26;97.96
13068;BME280;6600;51.362;6.686;2023-03-21T13:03:10;100868.97;;;13.27;97.55
13068;BME280;6600;51.362;6.686;2023-03-21T13:06:19;100860.91;;;13.27;97.24
13068;BME280;6600;51.362;6.686;2023-03-21T13:08:47;100861.94;;;13.26;97.65
13068;BME280;6600;51.362;6.686;2023-03-21T13:11:17;100850.00;;;13.22;98.40
13068;BME280;6600;51.362;6.686;2023-03-21T13:13:50;100856.38;;;13.39;97.71
13068;BME280;6600;51.362;6.686;2023-03-21T13:24:03;100852.88;;;13.50;95.56
13068;BME280;6600;51.362;6.686;2023-03-21T13:26:38;100840.81;;;13.53;95.18
13068;BME280;6600;51.362;6.686;2023-03-21T13:29:20;100828.66;;;13.50;95.19
13068;BME280;6600;51.362;6.686;2023-03-21T13:31:48;100822.91;;;13.58;95.47
13068;BME280;6600;51.362;6.686;2023-03-21T13:34:14;100820.72;;;13.67;95.04
13068;BME280;6600;51.362;6.686;2023-03-21T13:36:44;100817.78;;;13.69;94.15
13068;BME280;6600;51.362;6.686;2023-03-21T13:39:17;100819.66;;;13.80;93.83
13068;BME280;6600;51.362;6.686;2023-03-21T13:41:44;100811.00;;;13.78;93.24
13068;BME280;6600;51.362;6.686;2023-03-21T13:44:30;100815.91;;;13.81;94.16
13068;BME280;6600;51.362;6.686;2023-03-21T13:47:02;100820.81;;;13.84;95.32
13068;BME280;6600;51.362;6.686;2023-03-21T13:49:35;100816.13;;;13.79;94.89
13068;BME280;6600;51.362;6.686;2023-03-21T13:52:25;100812.66;;;13.79;95.23
13068;BME280;6600;51.362;6.686;2023-03-21T13:54:54;100816.84;;;13.75;95.45
13068;BME280;6600;51.362;6.686;2023-03-21T13:59:47;100810.66;;;13.74;95.27
13068;BME280;6600;51.362;6.686;2023-03-21T14:02:32;100818.25;;;13.89;94.95
13068;BME280;6600;51.362;6.686;2023-03-21T14:05:13;100820.34;;;13.87;94.54
13068;BME280;6600;51.362;6.686;2023-03-21T14:07:43;100818.97;;;13.96;94.22
13068;BME280;6600;51.362;6.686;2023-03-21T14:10:40;100817.06;;;14.08;94.24
13068;BME280;6600;51.362;6.686;2023-03-21T14:13:08;100810.84;;;14.19;94.26
13068;BME280;6600;51.362;6.686;2023-03-21T14:15:40;100799.72;;;14.27;92.03
13068;BME280;6600;51.362;6.686;2023-03-21T14:18:14;100796.66;;;14.35;91.68
13068;BME280;6600;51.362;6.686;2023-03-21T14:20:39;100821.03;;;14.17;91.47
13068;BME280;6600;51.362;6.686;2023-03-21T14:23:07;100813.44;;;14.14;91.25
13068;BME280;6600;51.362;6.686;2023-03-21T14:25:38;100804.66;;;14.07;90.90
13068;BME280;6600;51.362;6.686;2023-03-21T14:28:28;100800.09;;;14.07;91.15
13068;BME280;6600;51.362;6.686;2023-03-21T14:30:59;100800.56;;;14.04;91.45
13068;BME280;6600;51.362;6.686;2023-03-21T14:36:09;100795.28;;;13.98;91.84
13068;BME280;6600;51.362;6.686;2023-03-21T14:38:38;100797.41;;;13.96;91.76